sensor_id;sensor_type;location;lat;lon;timestamp;pressure;altitude;pressure_sealevel;temperature;humidity
76050;BME280;64967;50.234;19.224;2023-10-08T00:00:48;74444.56;;;-143.90;100.00
76050;BME280;64967;50.234;19.224;2023-10-08T00:03:22;74485.91;;;-143.90;100.00
76050;BME280;64967;50.234;19.224;2023-10-08T00:05:49;74504.50;;;-143.90;100.00
76050;BME280;64967;50.234;19.224;2023-10-08T00:08:16;74512.78;;;-143.90;100.00
76050;BME280;64967;50.234;19.224;2023-10-08T00:10:44;74539.66;;;-143.90;100.00
76050;BME280;64967;50.234;19.224;2023-10-08T00:13:12;74543.78;;;-143.90;100.00
76050;BME280;64967;50.234;19.224;2023-10-08T00:15:39;74554.13;;;-143.90;100.00
76050;BME280;64967;50.234;19.224;2023-10-08T00:18:21;74564.44;;;-143.90;100.00
76050;BME280;64967;50.234;19.224;2023-10-08T00:20:52;74560.31;;;-143.90;100.00
76050;BME280;64967;50.234;19.224;2023-10-08T00:23:23;74578.91;;;-143.90;100.00
76050;BME280;64967;50.234;19.224;2023-10-08T00:25:53;74578.91;;;-143.90;100.00
76050;BME280;64967;50.234;19.224;2023-10-08T00:28:21;74585.13;;;-143.90;100.00
76050;BME280;64967;50.234;19.224;2023-10-08T00:30:48;74574.78;;;-143.90;100.00
76050;BME280;64967;50.234;19.224;2023-10-08T00:33:16;74589.25;;;-143.90;100.00
76050;BME280;64967;50.234;19.224;2023-10-08T00:35:43;74589.25;;;-143.90;100.00
76050;BME280;64967;50.234;19.224;2023-10-08T00:38:10;74585.13;;;-143.90;100.00
76050;BME280;64967;50.234;19.224;2023-10-08T00:40:47;74572.72;;;-143.90;100.00
76050;BME280;64967;50.234;19.224;2023-10-08T00:43:32;74581.00;;;-143.90;100.00
76050;BME280;64967;50.234;19.224;2023-10-08T00:46:03;74591.31;;;-143.90;100.00
76050;BME280;64967;50.234;19.224;2023-10-08T00:48:46;74585.13;;;-143.90;100.00
76050;BME280;64967;50.234;19.224;2023-10-08T00:51:14;74589.25;;;-143.90;100.00
76050;BME280;64967;50.234;19.224;2023-10-08T00:53:54;74589.25;;;-143.90;100.00
76050;BME280;64967;50.234;19.224;2023-10-08T00:56:29;74589.25;;;-143.90;100.00
76050;BME280;64967;50.234;19.224;2023-10-08T00:59:32;74597.53;;;-143.90;100.00
76050;BME280;64967;50.234;19.224;2023-10-08T01:02:08;74597.53;;;-143.90;100.00
76050;BME280;64967;50.234;19.224;2023-10-08T01:04:41;74609.94;;;-143.90;100.00
76050;BME280;64967;50.234;19.224;2023-10-08T01:07:12;74630.59;;;-143.90;100.00
76050;BME280;64967;50.234;19.224;2023-10-08T01:09:39;74634.72;;;-143.90;100.00
76050;BME280;64967;50.234;19.224;2023-10-08T01:12:09;74638.88;;;-143.90;100.00
76050;BME280;64967;50.234;19.224;2023-10-08T01:14:39;74645.06;;;-143.90;100.00
76050;BME280;64967;50.234;19.224;2023-10-08T01:17:10;74663.66;;;-143.90;100.00
76050;BME280;64967;50.234;19.224;2023-10-08T01:19:43;74671.94;;;-143.90;100.00
76050;BME280;64967;50.234;19.224;2023-10-08T01:22:12;74692.63;;;-143.90;100.00
76050;BME280;64967;50.234;19.224;2023-10-08T01:24:44;74705.00;;;-143.90;100.00
76050;BME280;64967;50.234;19.224;2023-10-08T01:27:16;74707.09;;;-143.90;100.00
76050;BME280;64967;50.234;19.224;2023-10-08T01:29:53;74727.75;;;-143.90;100.00
76050;BME280;64967;50.234;19.224;2023-10-08T01:32:21;74744.28;;;-143.90;100.00
76050;BME280;64967;50.234;19.224;2023-10-08T01:34:49;74752.56;;;-143.90;100.00
76050;BME280;64967;50.234;19.224;2023-10-08T01:37:17;74781.50;;;-143.90;100.00
76050;BME280;64967;50.234;19.224;2023-10-08T01:39:47;74812.50;;;-143.90;100.00
76050;BME280;64967;50.234;19.224;2023-10-08T01:42:16;74839.38;;;-143.90;100.00
76050;BME280;64967;50.234;19.224;2023-10-08T01:44:48;74837.31;;;-143.90;100.00
76050;BME280;64967;50.234;19.224;2023-10-08T01:47:16;74845.59;;;-143.90;100.00
76050;BME280;64967;50.234;19.224;2023-10-08T01:49:43;74849.72;;;-143.90;100.00
76050;BME280;64967;50.234;19.224;2023-10-08T01:52:14;74853.84;;;-143.90;100.00
76050;BME280;64967;50.234;19.224;2023-10-08T01:54:48;74864.19;;;-143.90;100.00
76050;BME280;64967;50.234;19.224;2023-10-08T01:57:16;74880.72;;;-143.90;100.00
76050;BME280;64967;50.234;19.224;2023-10-08T01:59:43;74889.00;;;-143.90;100.00
76050;BME280;64967;50.234;19.224;2023-10-08T02:02:11;74895.19;;;-143.90;100.00
76050;BME280;64967;50.234;19.224;2023-10-08T02:04:39;74901.41;;;-143.90;100.00
76050;BME280;64967;50.234;19.224;2023-10-08T02:07:06;74907.59;;;-143.90;100.00
76050;BME280;64967;50.234;19.224;2023-10-08T02:09:40;74915.88;;;-143.90;100.00
76050;BME280;64967;50.234;19.224;2023-10-08T02:12:07;74936.53;;;-143.90;100.00
76050;BME280;64967;50.234;19.224;2023-10-08T02:14:34;74946.88;;;-143.90;100.00
76050;BME280;64967;50.234;19.224;2023-10-08T02:17:02;74955.16;;;-143.90;100.00
76050;BME280;64967;50.234;19.224;2023-10-08T02:19:33;74977.88;;;-143.90;100.00
76050;BME280;64967;50.234;19.224;2023-10-08T02:22:01;74986.16;;;-143.90;100.00
76050;BME280;64967;50.234;19.224;2023-10-08T02:24:29;75006.84;;;-143.90;100.00
76050;BME280;64967;50.234;19.224;2023-10-08T02:26:57;75008.91;;;-143.90;100.00
76050;BME280;64967;50.234;19.224;2023-10-08T02:29:26;74998.56;;;-143.90;100.00
76050;BME280;64967;50.234;19.224;2023-10-08T02:31:53;75000.63;;;-143.90;100.00
76050;BME280;64967;50.234;19.224;2023-10-08T02:34:21;74998.56;;;-143.90;100.00
76050;BME280;64967;50.234;19.224;2023-10-08T02:36:47;75008.91;;;-143.90;100.00
76050;BME280;64967;50.234;19.224;2023-10-08T02:39:14;75002.69;;;-143.90;100.00
76050;BME280;64967;50.234;19.224;2023-10-08T02:42:01;75027.50;;;-143.90;100.00
76050;BME280;64967;50.234;19.224;2023-10-08T02:44:28;75039.91;;;-143.90;100.00
76050;BME280;64967;50.234;19.224;2023-10-08T02:46:55;75056.44;;;-143.90;100.00
76050;BME280;64967;50.234;19.224;2023-10-08T02:49:21;75054.38;;;-143.90;100.00
76050;BME280;64967;50.234;19.224;2023-10-08T02:51:53;75060.59;;;-143.90;100.00
76050;BME280;64967;50.234;19.224;2023-10-08T02:54:21;75068.84;;;-143.90;100.00
76050;BME280;64967;50.234;19.224;2023-10-08T02:56:59;75068.84;;;-143.90;100.00
76050;BME280;64967;50.234;19.224;2023-10-08T02:59:33;75079.19;;;-143.90;100.00
76050;BME280;64967;50.234;19.224;2023-10-08T03:02:08;75089.53;;;-143.90;100.00
76050;BME280;64967;50.234;19.224;2023-10-08T03:04:46;75093.66;;;-143.90;100.00
76050;BME280;64967;50.234;19.224;2023-10-08T03:07:14;75101.94;;;-143.90;100.00
76050;BME280;64967;50.234;19.224;2023-10-08T03:09:59;75095.72;;;-143.90;100.00
76050;BME280;64967;50.234;19.224;2023-10-08T03:12:46;75093.66;;;-143.90;100.00
76050;BME280;64967;50.234;19.224;2023-10-08T03:15:14;75104.00;;;-143.90;100.00
76050;BME280;64967;50.234;19.224;2023-10-08T03:17:55;75104.00;;;-143.90;100.00
76050;BME280;64967;50.234;19.224;2023-10-08T03:20:24;75106.06;;;-143.90;100.00
76050;BME280;64967;50.234;19.224;2023-10-08T03:23:12;75118.47;;;-143.90;100.00
76050;BME280;64967;50.234;19.224;2023-10-08T03:25:57;75120.53;;;-143.90;100.00
76050;BME280;64967;50.234;19.224;2023-10-08T03:28:44;75135.00;;;-143.90;100.00
76050;BME280;64967;50.234;19.224;2023-10-08T03:31:10;75145.34;;;-143.90;100.00
76050;BME280;64967;50.234;19.224;2023-10-08T03:33:43;75153.63;;;-143.90;100.00
76050;BME280;64967;50.234;19.224;2023-10-08T03:36:15;75174.28;;;-143.90;100.00
76050;BME280;64967;50.234;19.224;2023-10-08T03:39:00;75197.03;;;-143.90;100.00
76050;BME280;64967;50.234;19.224;2023-10-08T03:41:40;75197.03;;;-143.90;100.00
76050;BME280;64967;50.234;19.224;2023-10-08T03:44:08;75199.09;;;-143.90;100.00
76050;BME280;64967;50.234;19.224;2023-10-08T03:46:40;75201.16;;;-143.90;100.00
76050;BME280;64967;50.234;19.224;2023-10-08T03:49:10;75197.03;;;-143.90;100.00
76050;BME280;64967;50.234;19.224;2023-10-08T03:51:49;75203.22;;;-143.90;100.00
76050;BME280;64967;50.234;19.224;2023-10-08T03:54:21;75205.28;;;-143.90;100.00
76050;BME280;64967;50.234;19.224;2023-10-08T03:57:02;75221.84;;;-143.90;100.00
76050;BME280;64967;50.234;19.224;2023-10-08T03:59:39;75234.25;;;-143.90;100.00
76050;BME280;64967;50.234;19.224;2023-10-08T04:02:08;75236.31;;;-143.90;100.00
76050;BME280;64967;50.234;19.224;2023-10-08T04:04:42;75234.25;;;-143.90;100.00
76050;BME280;64967;50.234;19.224;2023-10-08T04:07:20;75252.84;;;-143.90;100.00
76050;BME280;64967;50.234;19.224;2023-10-08T04:09:57;75269.38;;;-143.90;100.00
76050;BME280;64967;50.234;19.224;2023-10-08T04:12:36;75273.53;;;-143.90;100.00
76050;BME280;64967;50.234;19.224;2023-10-08T04:15:11;75275.59;;;-143.90;100.00
76050;BME280;64967;50.234;19.224;2023-10-08T04:17:43;75288.00;;;-143.90;100.00
76050;BME280;64967;50.234;19.224;2023-10-08T04:20:12;75304.53;;;-143.90;100.00
76050;BME280;64967;50.234;19.224;2023-10-08T04:23:00;75312.81;;;-143.90;100.00
76050;BME280;64967;50.234;19.224;2023-10-08T04:25:32;75325.22;;;-143.90;100.00
76050;BME280;64967;50.234;19.224;2023-10-08T04:28:00;75312.81;;;-143.90;100.00
76050;BME280;64967;50.234;19.224;2023-10-08T04:30:32;75327.28;;;-143.90;100.00
76050;BME280;64967;50.234;19.224;2023-10-08T04:33:00;75312.81;;;-143.90;100.00
76050;BME280;64967;50.234;19.224;2023-10-08T04:35:36;75314.88;;;-143.90;100.00
76050;BME280;64967;50.234;19.224;2023-10-08T04:38:04;75310.75;;;-143.90;100.00
76050;BME280;64967;50.234;19.224;2023-10-08T04:40:35;75321.06;;;-143.90;100.00
76050;BME280;64967;50.234;19.224;2023-10-08T04:43:15;75316.94;;;-143.90;100.00
76050;BME280;64967;50.234;19.224;2023-10-08T04:45:42;75327.28;;;-143.90;100.00
76050;BME280;64967;50.234;19.224;2023-10-08T04:48:09;75327.28;;;-143.90;100.00
76050;BME280;64967;50.234;19.224;2023-10-08T04:50:36;75343.81;;;-143.90;100.00
76050;BME280;64967;50.234;19.224;2023-10-08T04:53:04;75366.56;;;-143.90;100.00
76050;BME280;64967;50.234;19.224;2023-10-08T04:55:35;75364.50;;;-143.90;100.00
76050;BME280;64967;50.234;19.224;2023-10-08T04:58:01;75358.28;;;-143.90;100.00
76050;BME280;64967;50.234;19.224;2023-10-08T05:00:38;75354.16;;;-143.90;100.00
76050;BME280;64967;50.234;19.224;2023-10-08T05:03:11;75385.16;;;-143.90;100.00
76050;BME280;64967;50.234;19.224;2023-10-08T05:05:41;75399.63;;;-143.90;100.00
76050;BME280;64967;50.234;19.224;2023-10-08T05:08:22;75401.72;;;-143.90;100.00
76050;BME280;64967;50.234;19.224;2023-10-08T05:10:59;75407.91;;;-143.90;100.00
76050;BME280;64967;50.234;19.224;2023-10-08T05:13:42;75407.91;;;-143.90;100.00
76050;BME280;64967;50.234;19.224;2023-10-08T05:16:43;75416.19;;;-143.90;100.00
76050;BME280;64967;50.234;19.224;2023-10-08T05:19:15;75422.38;;;-143.90;100.00
76050;BME280;64967;50.234;19.224;2023-10-08T05:22:00;75412.03;;;-143.90;100.00
76050;BME280;64967;50.234;19.224;2023-10-08T05:24:46;75385.16;;;-143.90;100.00
76050;BME280;64967;50.234;19.224;2023-10-08T05:27:35;75409.97;;;-143.90;100.00
76050;BME280;64967;50.234;19.224;2023-10-08T05:33:04;75441.00;;;-143.90;100.00
76050;BME280;64967;50.234;19.224;2023-10-08T05:35:41;75436.84;;;-143.90;100.00
76050;BME280;64967;50.234;19.224;2023-10-08T05:38:12;75451.31;;;-143.90;100.00
76050;BME280;64967;50.234;19.224;2023-10-08T05:40:43;75453.41;;;-143.90;100.00
76050;BME280;64967;50.234;19.224;2023-10-08T05:43:35;75465.81;;;-143.90;100.00
76050;BME280;64967;50.234;19.224;2023-10-08T05:46:08;75469.94;;;-143.90;100.00
76050;BME280;64967;50.234;19.224;2023-10-08T05:48:53;75469.94;;;-143.90;100.00
76050;BME280;64967;50.234;19.224;2023-10-08T05:51:37;75492.69;;;-143.90;100.00
76050;BME280;64967;50.234;19.224;2023-10-08T05:54:14;75490.63;;;-143.90;100.00
76050;BME280;64967;50.234;19.224;2023-10-08T05:57:10;75496.81;;;-143.90;100.00
76050;BME280;64967;50.234;19.224;2023-10-08T05:59:38;75482.34;;;-143.90;100.00
76050;BME280;64967;50.234;19.224;2023-10-08T06:02:20;75490.63;;;-143.90;100.00
76050;BME280;64967;50.234;19.224;2023-10-08T06:05:02;75498.88;;;-143.90;100.00
76050;BME280;64967;50.234;19.224;2023-10-08T06:07:50;75490.63;;;-143.90;100.00
76050;BME280;64967;50.234;19.224;2023-10-08T06:10:30;75478.22;;;-143.90;100.00
76050;BME280;64967;50.234;19.224;2023-10-08T06:13:11;75492.69;;;-143.90;100.00
76050;BME280;64967;50.234;19.224;2023-10-08T06:16:09;75494.75;;;-143.90;100.00
76050;BME280;64967;50.234;19.224;2023-10-08T06:18:39;75507.16;;;-143.90;100.00
76050;BME280;64967;50.234;19.224;2023-10-08T06:21:06;75507.16;;;-143.90;100.00
76050;BME280;64967;50.234;19.224;2023-10-08T06:23:36;75511.28;;;-143.90;100.00
76050;BME280;64967;50.234;19.224;2023-10-08T06:26:04;75531.97;;;-143.90;100.00
76050;BME280;64967;50.234;19.224;2023-10-08T06:28:38;75527.81;;;-143.90;100.00
76050;BME280;64967;50.234;19.224;2023-10-08T06:31:05;75527.81;;;-143.90;100.00
76050;BME280;64967;50.234;19.224;2023-10-08T06:33:39;75525.75;;;-143.90;100.00
76050;BME280;64967;50.234;19.224;2023-10-08T06:36:09;75529.91;;;-143.90;100.00
76050;BME280;64967;50.234;19.224;2023-10-08T06:38:40;75511.28;;;-143.90;100.00
76050;BME280;64967;50.234;19.224;2023-10-08T06:41:10;75527.81;;;-143.90;100.00
76050;BME280;64967;50.234;19.224;2023-10-08T06:43:59;75538.16;;;-143.90;100.00
76050;BME280;64967;50.234;19.224;2023-10-08T06:46:30;75529.91;;;-143.90;100.00
76050;BME280;64967;50.234;19.224;2023-10-08T06:49:03;75536.09;;;-143.90;100.00
76050;BME280;64967;50.234;19.224;2023-10-08T06:51:39;75531.97;;;-143.90;100.00
76050;BME280;64967;50.234;19.224;2023-10-08T06:54:08;75538.16;;;-143.90;100.00
76050;BME280;64967;50.234;19.224;2023-10-08T06:56:37;75538.16;;;-143.90;100.00
76050;BME280;64967;50.234;19.224;2023-10-08T06:59:03;75519.56;;;-143.90;100.00
76050;BME280;64967;50.234;19.224;2023-10-08T07:01:31;75519.56;;;-143.90;100.00
76050;BME280;64967;50.234;19.224;2023-10-08T07:04:13;75507.16;;;-143.90;100.00
76050;BME280;64967;50.234;19.224;2023-10-08T07:06:41;75511.28;;;-143.90;100.00
76050;BME280;64967;50.234;19.224;2023-10-08T07:09:11;75527.81;;;-143.90;100.00
76050;BME280;64967;50.234;19.224;2023-10-08T07:11:50;75523.69;;;-143.90;100.00
76050;BME280;64967;50.234;19.224;2023-10-08T07:14:22;75527.81;;;-143.90;100.00
76050;BME280;64967;50.234;19.224;2023-10-08T07:16:58;75565.03;;;-143.90;100.00
76050;BME280;64967;50.234;19.224;2023-10-08T07:19:30;75548.50;;;-143.90;100.00
76050;BME280;64967;50.234;19.224;2023-10-08T07:22:05;75550.56;;;-143.90;100.00
76050;BME280;64967;50.234;19.224;2023-10-08T07:24:52;75550.56;;;-143.90;100.00
76050;BME280;64967;50.234;19.224;2023-10-08T07:27:19;75567.13;;;-143.90;100.00
76050;BME280;64967;50.234;19.224;2023-10-08T07:29:56;75565.03;;;-143.90;100.00
76050;BME280;64967;50.234;19.224;2023-10-08T07:32:25;75560.91;;;-143.90;100.00
76050;BME280;64967;50.234;19.224;2023-10-08T07:34:56;75560.91;;;-143.90;100.00
76050;BME280;64967;50.234;19.224;2023-10-08T07:37:38;75556.78;;;-143.90;100.00
76050;BME280;64967;50.234;19.224;2023-10-08T07:40:05;75569.19;;;-143.90;100.00
76050;BME280;64967;50.234;19.224;2023-10-08T07:42:36;75587.78;;;-143.90;100.00
76050;BME280;64967;50.234;19.224;2023-10-08T07:45:03;75596.06;;;-143.90;100.00
76050;BME280;64967;50.234;19.224;2023-10-08T07:47:31;75581.59;;;-143.90;100.00
76050;BME280;64967;50.234;19.224;2023-10-08T07:49:58;75571.25;;;-143.90;100.00
76050;BME280;64967;50.234;19.224;2023-10-08T07:52:25;75581.59;;;-143.90;100.00
76050;BME280;64967;50.234;19.224;2023-10-08T07:54:51;75585.72;;;-143.90;100.00
76050;BME280;64967;50.234;19.224;2023-10-08T07:57:19;75571.25;;;-143.90;100.00
76050;BME280;64967;50.234;19.224;2023-10-08T07:59:52;75579.53;;;-143.90;100.00
76050;BME280;64967;50.234;19.224;2023-10-08T08:02:28;75596.06;;;-143.90;100.00
76050;BME280;64967;50.234;19.224;2023-10-08T08:04:54;75594.00;;;-143.90;100.00
76050;BME280;64967;50.234;19.224;2023-10-08T08:07:21;75585.72;;;-143.90;100.00
76050;BME280;64967;50.234;19.224;2023-10-08T08:09:52;75602.25;;;-143.90;100.00
76050;BME280;64967;50.234;19.224;2023-10-08T08:12:27;75585.72;;;-143.90;100.00
76050;BME280;64967;50.234;19.224;2023-10-08T08:14:55;75577.44;;;-143.90;100.00
76050;BME280;64967;50.234;19.224;2023-10-08T08:17:22;75560.91;;;-143.90;100.00
76050;BME280;64967;50.234;19.224;2023-10-08T08:19:52;75552.63;;;-143.90;100.00
76050;BME280;64967;50.234;19.224;2023-10-08T08:22:21;75534.03;;;-143.90;100.00
76050;BME280;64967;50.234;19.224;2023-10-08T08:24:54;75542.31;;;-143.90;100.00
76050;BME280;64967;50.234;19.224;2023-10-08T08:27:43;75507.16;;;-143.90;100.00
76050;BME280;64967;50.234;19.224;2023-10-08T08:30:15;75486.47;;;-143.90;100.00
76050;BME280;64967;50.234;19.224;2023-10-08T08:32:44;75480.28;;;-143.90;100.00
76050;BME280;64967;50.234;19.224;2023-10-08T08:35:18;75472.00;;;-143.90;99.53
76050;BME280;64967;50.234;19.224;2023-10-08T08:37:46;75469.94;;;-143.90;99.02
76050;BME280;64967;50.234;19.224;2023-10-08T08:40:18;75453.41;;;-143.90;99.30
76050;BME280;64967;50.234;19.224;2023-10-08T08:42:47;75455.47;;;-143.90;100.00
76050;BME280;64967;50.234;19.224;2023-10-08T08:45:19;75461.66;;;-143.90;97.59
76050;BME280;64967;50.234;19.224;2023-10-08T08:47:47;75465.81;;;-143.90;95.32
76050;BME280;64967;50.234;19.224;2023-10-08T08:50:14;75455.47;;;-143.90;95.66
76050;BME280;64967;50.234;19.224;2023-10-08T08:52:41;75474.06;;;-143.90;94.49
76050;BME280;64967;50.234;19.224;2023-10-08T08:55:09;75494.75;;;-143.90;94.78
76050;BME280;64967;50.234;19.224;2023-10-08T08:57:47;75486.47;;;-143.90;95.67
76050;BME280;64967;50.234;19.224;2023-10-08T09:00:15;75492.69;;;-143.90;92.19
76050;BME280;64967;50.234;19.224;2023-10-08T09:02:47;75490.63;;;-143.90;92.94
76050;BME280;64967;50.234;19.224;2023-10-08T09:05:16;75478.22;;;-143.90;92.96
76050;BME280;64967;50.234;19.224;2023-10-08T09:07:59;75461.66;;;-143.90;94.79
76050;BME280;64967;50.234;19.224;2023-10-08T09:10:30;75472.00;;;-143.90;94.65
76050;BME280;64967;50.234;19.224;2023-10-08T09:13:07;75474.06;;;-143.90;92.24
76050;BME280;64967;50.234;19.224;2023-10-08T09:15:35;75465.81;;;-143.90;82.29
76050;BME280;64967;50.234;19.224;2023-10-08T09:18:05;75463.72;;;-143.90;79.56
76050;BME280;64967;50.234;19.224;2023-10-08T09:20:37;75432.72;;;-143.90;78.77
76050;BME280;64967;50.234;19.224;2023-10-08T09:23:15;75401.72;;;-143.90;79.26
76050;BME280;64967;50.234;19.224;2023-10-08T09:25:45;75378.97;;;-143.90;79.01
76050;BME280;64967;50.234;19.224;2023-10-08T09:28:12;75383.09;;;-143.90;75.01
76050;BME280;64967;50.234;19.224;2023-10-08T09:30:42;75405.84;;;-143.90;71.26
76050;BME280;64967;50.234;19.224;2023-10-08T09:33:12;75430.66;;;-143.90;76.13
76050;BME280;64967;50.234;19.224;2023-10-08T09:35:39;75455.47;;;-143.90;76.80
76050;BME280;64967;50.234;19.224;2023-10-08T09:38:07;75482.34;;;-143.90;79.70
76050;BME280;64967;50.234;19.224;2023-10-08T09:40:40;75494.75;;;-143.90;78.67
76050;BME280;64967;50.234;19.224;2023-10-08T09:43:11;75534.03;;;-143.90;77.66
76050;BME280;64967;50.234;19.224;2023-10-08T09:45:43;75562.97;;;-143.90;76.38
76050;BME280;64967;50.234;19.224;2023-10-08T09:48:11;75556.78;;;-143.90;78.68
76050;BME280;64967;50.234;19.224;2023-10-08T09:50:41;75525.75;;;-143.90;78.66
76050;BME280;64967;50.234;19.224;2023-10-08T09:53:09;75513.34;;;-143.90;70.22
76050;BME280;64967;50.234;19.224;2023-10-08T09:55:54;75494.75;;;-143.90;64.47
76050;BME280;64967;50.234;19.224;2023-10-08T09:58:27;75480.28;;;-143.90;64.94
76050;BME280;64967;50.234;19.224;2023-10-08T10:00:55;75451.31;;;-143.90;63.75
76050;BME280;64967;50.234;19.224;2023-10-08T10:03:25;75438.94;;;-143.90;55.89
76050;BME280;64967;50.234;19.224;2023-10-08T10:05:53;75424.44;;;-143.90;62.23
76050;BME280;64967;50.234;19.224;2023-10-08T10:08:25;75405.84;;;-143.90;59.54
76050;BME280;64967;50.234;19.224;2023-10-08T10:11:00;75416.19;;;-143.90;55.29
76050;BME280;64967;50.234;19.224;2023-10-08T10:13:38;75407.91;;;-143.90;52.80
76050;BME280;64967;50.234;19.224;2023-10-08T10:16:09;75416.19;;;-143.90;51.23
76050;BME280;64967;50.234;19.224;2023-10-08T10:18:36;75401.72;;;-143.90;53.62
76050;BME280;64967;50.234;19.224;2023-10-08T10:23:44;75391.38;;;-143.90;51.98
76050;BME280;64967;50.234;19.224;2023-10-08T10:31:55;75420.31;;;-143.90;52.35
76050;BME280;64967;50.234;19.224;2023-10-08T10:34:24;75409.97;;;-143.90;52.17
76050;BME280;64967;50.234;19.224;2023-10-08T10:36:56;75397.56;;;-143.90;53.96
76050;BME280;64967;50.234;19.224;2023-10-08T10:39:35;75393.44;;;-143.90;51.40
76050;BME280;64967;50.234;19.224;2023-10-08T10:42:06;75399.63;;;-143.90;51.51
76050;BME280;64967;50.234;19.224;2023-10-08T10:44:45;75409.97;;;-143.90;48.55
76050;BME280;64967;50.234;19.224;2023-10-08T10:47:17;75399.63;;;-143.90;47.12
76050;BME280;64967;50.234;19.224;2023-10-08T10:49:46;75399.63;;;-143.90;45.15
76050;BME280;64967;50.234;19.224;2023-10-08T10:52:25;75407.91;;;-143.90;46.95
76050;BME280;64967;50.234;19.224;2023-10-08T10:55:01;75416.19;;;-143.90;47.82
76050;BME280;64967;50.234;19.224;2023-10-08T10:57:52;75414.13;;;-143.90;47.28
76050;BME280;64967;50.234;19.224;2023-10-08T11:00:24;75420.31;;;-143.90;48.57
76050;BME280;64967;50.234;19.224;2023-10-08T11:03:02;75412.03;;;-143.90;48.40
76050;BME280;64967;50.234;19.224;2023-10-08T11:05:45;75395.50;;;-143.90;48.60
76050;BME280;64967;50.234;19.224;2023-10-08T11:08:18;75381.03;;;-143.90;48.61
76050;BME280;64967;50.234;19.224;2023-10-08T11:10:47;75420.31;;;-143.90;43.27
76050;BME280;64967;50.234;19.224;2023-10-08T11:13:19;75432.72;;;-143.90;44.56
76050;BME280;64967;50.234;19.224;2023-10-08T11:15:48;75445.13;;;-143.90;43.57
76050;BME280;64967;50.234;19.224;2023-10-08T11:18:23;75478.22;;;-143.90;41.85
76050;BME280;64967;50.234;19.224;2023-10-08T11:20:51;75478.22;;;-143.90;41.80
76050;BME280;64967;50.234;19.224;2023-10-08T11:23:47;75507.16;;;-143.90;39.90
76050;BME280;64967;50.234;19.224;2023-10-08T11:26:23;75503.03;;;-143.90;39.55
76050;BME280;64967;50.234;19.224;2023-10-08T11:29:00;75523.69;;;-143.90;39.18
76050;BME280;64967;50.234;19.224;2023-10-08T11:31:30;75490.63;;;-143.90;40.60
76050;BME280;64967;50.234;19.224;2023-10-08T11:34:04;75500.94;;;-143.90;41.95
76050;BME280;64967;50.234;19.224;2023-10-08T11:36:37;75503.03;;;-143.90;40.77
76050;BME280;64967;50.234;19.224;2023-10-08T11:39:16;75503.03;;;-143.90;40.76
76050;BME280;64967;50.234;19.224;2023-10-08T11:42:01;75494.75;;;-143.90;41.23
76050;BME280;64967;50.234;19.224;2023-10-08T11:44:43;75469.94;;;-143.90;42.17
76050;BME280;64967;50.234;19.224;2023-10-08T11:47:10;75455.47;;;-143.90;42.68
76050;BME280;64967;50.234;19.224;2023-10-08T11:49:47;75436.84;;;-143.90;42.72
76050;BME280;64967;50.234;19.224;2023-10-08T11:52:17;75426.50;;;-143.90;43.87
76050;BME280;64967;50.234;19.224;2023-10-08T11:54:49;75445.13;;;-143.90;43.65
76050;BME280;64967;50.234;19.224;2023-10-08T11:57:18;75441.00;;;-143.90;46.37
76050;BME280;64967;50.234;19.224;2023-10-08T11:59:49;75420.31;;;-143.90;46.01
76050;BME280;64967;50.234;19.224;2023-10-08T12:02:19;75405.84;;;-143.90;44.00
76050;BME280;64967;50.234;19.224;2023-10-08T12:04:47;75414.13;;;-143.90;44.69
76050;BME280;64967;50.234;19.224;2023-10-08T12:07:15;75453.41;;;-143.90;40.53
76050;BME280;64967;50.234;19.224;2023-10-08T12:09:44;75461.66;;;-143.90;41.43
76050;BME280;64967;50.234;19.224;2023-10-08T12:12:15;75511.28;;;-143.90;44.44
76050;BME280;64967;50.234;19.224;2023-10-08T12:14:42;75531.97;;;-143.90;43.20
76050;BME280;64967;50.234;19.224;2023-10-08T12:17:12;75538.16;;;-143.90;42.29
76050;BME280;64967;50.234;19.224;2023-10-08T12:19:38;75531.97;;;-143.90;44.15
76050;BME280;64967;50.234;19.224;2023-10-08T12:22:09;75523.69;;;-143.90;44.19
76050;BME280;64967;50.234;19.224;2023-10-08T12:24:40;75513.34;;;-143.90;43.04
76050;BME280;64967;50.234;19.224;2023-10-08T12:27:09;75507.16;;;-143.90;42.84
76050;BME280;64967;50.234;19.224;2023-10-08T12:29:38;75488.53;;;-143.90;42.47
76050;BME280;64967;50.234;19.224;2023-10-08T12:32:05;75482.34;;;-143.90;41.19
76050;BME280;64967;50.234;19.224;2023-10-08T12:34:44;75474.06;;;-143.90;43.06
76050;BME280;64967;50.234;19.224;2023-10-08T12:37:10;75478.22;;;-143.90;39.36
76050;BME280;64967;50.234;19.224;2023-10-08T12:39:41;75505.09;;;-143.90;38.63
76050;BME280;64967;50.234;19.224;2023-10-08T12:42:23;75500.94;;;-143.90;39.22
76050;BME280;64967;50.234;19.224;2023-10-08T12:44:52;75488.53;;;-143.90;39.61
76050;BME280;64967;50.234;19.224;2023-10-08T12:47:18;75478.22;;;-143.90;39.70
76050;BME280;64967;50.234;19.224;2023-10-08T12:49:45;75498.88;;;-143.90;39.28
76050;BME280;64967;50.234;19.224;2023-10-08T12:52:13;75513.34;;;-143.90;39.18
76050;BME280;64967;50.234;19.224;2023-10-08T12:54:41;75511.28;;;-143.90;40.12
76050;BME280;64967;50.234;19.224;2023-10-08T12:57:12;75503.03;;;-143.90;40.12
76050;BME280;64967;50.234;19.224;2023-10-08T12:59:42;75492.69;;;-143.90;41.56
76050;BME280;64967;50.234;19.224;2023-10-08T13:02:14;75488.53;;;-143.90;42.14